Aviation Digital Data Service (ADDS)

Output produced by METARs form (1217 UTC 25 June 2019)
found at http://www.aviationweather.gov/metar/data/
 
Forecast for: EGMC (SOUTHEND-ON-SEA , GB)
Text: TAF EGMC 251102Z 2512/2521 04010KT 9999 SCT025
Forecast period: 1200 to 2100 UTC 25 June 2019
Forecast type: FROM: standard forecast or significant change
Winds: from the NE (40 degrees) at 12 MPH (10 knots; 5.1 m/s)
Visibility: 6 or more miles 10+ km)
Ceiling: at least 12,000 feet AGL
Clouds: scattered clouds at 2500 feet AGL
Weather: no significant weather forecast for this period
Text: BECMG 2512/2515 11005KT
Forecast period: 1200 to 2100 UTC 25 June 2019
Forecast type: BECOMING: Conditions expected to become as follows by 1500 UTC 25 June 2019
Winds: from the ESE (110 degrees) at 6 MPH (5 knots; 2.6 m/s)
Visibility: 6 or more miles 10+ km)
Ceiling: at least 12,000 feet AGL
Clouds: scattered clouds at 2500 feet AGL
Weather: no significant weather forecast for this period